sensor_id;sensor_type;location;lat;lon;timestamp;pressure;altitude;pressure_sealevel;temperature;humidity
43450;BME280;29041;42.266;23.110;2023-01-31T00:20:32;95373.03;;;0.25;85.40
43450;BME280;29041;42.266;23.110;2023-01-31T00:23:26;95375.16;;;0.43;84.07
43450;BME280;29041;42.266;23.110;2023-01-31T01:07:11;95335.28;;;0.19;86.61
43450;BME280;29041;42.266;23.110;2023-01-31T01:10:11;95341.66;;;0.18;86.65
43450;BME280;29041;42.266;23.110;2023-01-31T01:13:06;95313.41;;;-0.33;89.68
43450;BME280;29041;42.266;23.110;2023-01-31T01:15:57;95328.72;;;-0.25;89.60
43450;BME280;29041;42.266;23.110;2023-01-31T01:22:16;95289.91;;;-0.09;87.62
43450;BME280;29041;42.266;23.110;2023-01-31T01:25:09;95329.47;;;0.12;87.61
43450;BME280;29041;42.266;23.110;2023-01-31T01:28:37;95309.47;;;-0.05;86.76
43450;BME280;29041;42.266;23.110;2023-01-31T01:31:29;95313.38;;;0.19;86.70
43450;BME280;29041;42.266;23.110;2023-01-31T01:34:17;95308.91;;;0.09;86.37
43450;BME280;29041;42.266;23.110;2023-01-31T01:37:06;95328.13;;;0.40;84.87
43450;BME280;29041;42.266;23.110;2023-01-31T01:40:08;95331.81;;;0.50;82.74
43450;BME280;29041;42.266;23.110;2023-01-31T01:42:56;95314.94;;;0.35;83.52
43450;BME280;29041;42.266;23.110;2023-01-31T01:45:43;95354.78;;;0.59;83.07
43450;BME280;29041;42.266;23.110;2023-01-31T01:48:31;95362.16;;;0.68;83.41
43450;BME280;29041;42.266;23.110;2023-01-31T01:51:18;95363.81;;;0.33;83.64
43450;BME280;29041;42.266;23.110;2023-01-31T01:54:10;95373.00;;;0.45;83.15
43450;BME280;29041;42.266;23.110;2023-01-31T02:19:37;95376.97;;;0.43;82.66
43450;BME280;29041;42.266;23.110;2023-01-31T02:22:46;95387.56;;;0.33;83.79
43450;BME280;29041;42.266;23.110;2023-01-31T03:03:29;95435.59;;;-0.02;88.67
43450;BME280;29041;42.266;23.110;2023-01-31T03:07:14;95444.34;;;0.14;87.30
43450;BME280;29041;42.266;23.110;2023-01-31T03:10:17;95402.06;;;-0.06;86.14
43450;BME280;29041;42.266;23.110;2023-01-31T03:13:21;95447.75;;;0.10;85.80
43450;BME280;29041;42.266;23.110;2023-01-31T03:16:22;95401.28;;;-0.07;84.47
43450;BME280;29041;42.266;23.110;2023-01-31T03:19:39;95455.69;;;0.30;84.89
43450;BME280;29041;42.266;23.110;2023-01-31T03:22:37;95409.47;;;0.23;84.16
43450;BME280;29041;42.266;23.110;2023-01-31T03:25:30;95441.69;;;0.51;83.12
43450;BME280;29041;42.266;23.110;2023-01-31T03:28:24;95425.84;;;0.04;84.55
43450;BME280;29041;42.266;23.110;2023-01-31T03:31:18;95425.06;;;0.14;84.71
43450;BME280;29041;42.266;23.110;2023-01-31T03:34:08;95418.19;;;0.08;83.29
43450;BME280;29041;42.266;23.110;2023-01-31T03:37:04;95452.25;;;0.56;79.29
43450;BME280;29041;42.266;23.110;2023-01-31T03:39:59;95479.97;;;0.89;72.19
43450;BME280;29041;42.266;23.110;2023-01-31T03:42:54;95473.81;;;1.20;70.28
43450;BME280;29041;42.266;23.110;2023-01-31T03:45:46;95483.03;;;1.43;70.23
43450;BME280;29041;42.266;23.110;2023-01-31T03:48:38;95485.53;;;0.83;80.50
43450;BME280;29041;42.266;23.110;2023-01-31T03:51:29;95489.75;;;0.22;85.00
43450;BME280;29041;42.266;23.110;2023-01-31T03:54:23;95497.94;;;0.25;85.98
43450;BME280;29041;42.266;23.110;2023-01-31T04:24:07;95530.16;;;0.33;83.97
43450;BME280;29041;42.266;23.110;2023-01-31T04:30:54;95544.84;;;-0.03;86.51
43450;BME280;29041;42.266;23.110;2023-01-31T04:37:34;95541.53;;;0.49;84.50
43450;BME280;29041;42.266;23.110;2023-01-31T04:41:16;95554.47;;;0.45;83.52
43450;BME280;29041;42.266;23.110;2023-01-31T04:44:04;95533.59;;;0.38;81.50
43450;BME280;29041;42.266;23.110;2023-01-31T04:49:38;95543.13;;;0.60;80.80
43450;BME280;29041;42.266;23.110;2023-01-31T04:52:30;95552.13;;;0.59;80.96
43450;BME280;29041;42.266;23.110;2023-01-31T04:55:49;95535.72;;;0.46;82.08
43450;BME280;29041;42.266;23.110;2023-01-31T05:04:27;95538.88;;;0.38;82.00
43450;BME280;29041;42.266;23.110;2023-01-31T05:07:21;95538.38;;;0.46;81.94
43450;BME280;29041;42.266;23.110;2023-01-31T05:18:23;95582.78;;;0.86;82.75
43450;BME280;29041;42.266;23.110;2023-01-31T05:22:03;95538.88;;;0.38;82.65
43450;BME280;29041;42.266;23.110;2023-01-31T05:29:02;95588.06;;;0.65;84.11
43450;BME280;29041;42.266;23.110;2023-01-31T05:42:42;95581.69;;;0.61;83.64
43450;BME280;29041;42.266;23.110;2023-01-31T05:45:52;95574.03;;;0.59;83.20
43450;BME280;29041;42.266;23.110;2023-01-31T05:52:08;95604.47;;;0.98;82.31
43450;BME280;29041;42.266;23.110;2023-01-31T05:55:00;95567.44;;;0.77;82.31
43450;BME280;29041;42.266;23.110;2023-01-31T06:04:43;95551.59;;;0.88;81.27
43450;BME280;29041;42.266;23.110;2023-01-31T06:07:34;95559.00;;;0.91;81.57
43450;BME280;29041;42.266;23.110;2023-01-31T06:10:38;95588.59;;;1.08;80.65
43450;BME280;29041;42.266;23.110;2023-01-31T06:14:03;95570.63;;;0.79;81.96
43450;BME280;29041;42.266;23.110;2023-01-31T06:19:49;95566.13;;;1.16;80.86
43450;BME280;29041;42.266;23.110;2023-01-31T06:23:09;95584.09;;;1.30;80.76
43450;BME280;29041;42.266;23.110;2023-01-31T06:26:11;95588.06;;;1.22;80.35
43450;BME280;29041;42.266;23.110;2023-01-31T06:29:03;95579.34;;;1.06;80.49
43450;BME280;29041;42.266;23.110;2023-01-31T06:32:05;95570.09;;;1.14;80.18
43450;BME280;29041;42.266;23.110;2023-01-31T06:35:27;95565.88;;;0.97;81.08
43450;BME280;29041;42.266;23.110;2023-01-31T06:43:34;95579.34;;;1.37;79.61
43450;BME280;29041;42.266;23.110;2023-01-31T06:46:33;95563.75;;;1.04;78.74
43450;BME280;29041;42.266;23.110;2023-01-31T06:49:38;95541.53;;;1.05;78.23
43450;BME280;29041;42.266;23.110;2023-01-31T06:52:31;95588.84;;;1.33;78.24
43450;BME280;29041;42.266;23.110;2023-01-31T06:55:29;95570.59;;;1.31;77.45
43450;BME280;29041;42.266;23.110;2023-01-31T06:58:25;95582.72;;;1.58;78.06
43450;BME280;29041;42.266;23.110;2023-01-31T07:01:22;95598.56;;;1.79;77.41
43450;BME280;29041;42.266;23.110;2023-01-31T07:04:13;95548.66;;;1.36;77.90
43450;BME280;29041;42.266;23.110;2023-01-31T07:07:01;95607.09;;;1.55;77.86
43450;BME280;29041;42.266;23.110;2023-01-31T07:09:50;95603.38;;;1.46;77.14
43450;BME280;29041;42.266;23.110;2023-01-31T07:18:07;95602.25;;;1.72;77.13
43450;BME280;29041;42.266;23.110;2023-01-31T07:21:39;95599.13;;;1.70;76.41
43450;BME280;29041;42.266;23.110;2023-01-31T08:08:44;95605.63;;;1.99;78.24
43450;BME280;29041;42.266;23.110;2023-01-31T08:11:35;95599.66;;;1.62;78.67
43450;BME280;29041;42.266;23.110;2023-01-31T08:15:05;95594.31;;;1.72;79.56
43450;BME280;29041;42.266;23.110;2023-01-31T08:18:07;95607.53;;;1.93;79.42
43450;BME280;29041;42.266;23.110;2023-01-31T08:20:57;95584.19;;;1.95;79.37
43450;BME280;29041;42.266;23.110;2023-01-31T08:23:49;95601.63;;;2.01;80.09
43450;BME280;29041;42.266;23.110;2023-01-31T08:34:23;95599.88;;;1.81;83.34
43450;BME280;29041;42.266;23.110;2023-01-31T08:37:22;95590.38;;;1.65;83.33
43450;BME280;29041;42.266;23.110;2023-01-31T08:40:36;95607.28;;;1.79;84.45
43450;BME280;29041;42.266;23.110;2023-01-31T08:43:32;95608.63;;;1.77;84.70
43450;BME280;29041;42.266;23.110;2023-01-31T08:46:38;95609.19;;;1.53;84.59
43450;BME280;29041;42.266;23.110;2023-01-31T09:07:03;95623.16;;;2.50;83.93
43450;BME280;29041;42.266;23.110;2023-01-31T09:10:11;95581.97;;;2.23;84.93
43450;BME280;29041;42.266;23.110;2023-01-31T09:13:15;95623.97;;;2.45;85.42
43450;BME280;29041;42.266;23.110;2023-01-31T09:16:14;95589.69;;;2.64;83.65
43450;BME280;29041;42.266;23.110;2023-01-31T09:19:04;95622.78;;;3.07;82.06
43450;BME280;29041;42.266;23.110;2023-01-31T09:21:54;95613.50;;;3.09;81.09
43450;BME280;29041;42.266;23.110;2023-01-31T09:24:45;95606.50;;;3.24;80.85
43450;BME280;29041;42.266;23.110;2023-01-31T09:27:32;95623.97;;;3.25;80.06
43450;BME280;29041;42.266;23.110;2023-01-31T09:30:22;95627.13;;;2.97;81.41
43450;BME280;29041;42.266;23.110;2023-01-31T09:33:09;95621.53;;;2.99;81.68
43450;BME280;29041;42.266;23.110;2023-01-31T09:35:59;95619.53;;;3.20;81.05
43450;BME280;29041;42.266;23.110;2023-01-31T09:38:47;95610.75;;;2.85;81.25
43450;BME280;29041;42.266;23.110;2023-01-31T09:41:37;95612.91;;;3.17;80.09
43450;BME280;29041;42.266;23.110;2023-01-31T09:44:30;95606.69;;;3.32;80.19
43450;BME280;29041;42.266;23.110;2023-01-31T09:47:22;95600.81;;;3.36;78.25
43450;BME280;29041;42.266;23.110;2023-01-31T09:50:19;95588.66;;;3.29;78.56
43450;BME280;29041;42.266;23.110;2023-01-31T09:53:10;95590.66;;;3.43;78.77
43450;BME280;29041;42.266;23.110;2023-01-31T09:56:08;95583.19;;;3.74;76.48
43450;BME280;29041;42.266;23.110;2023-01-31T09:59:06;95587.75;;;3.69;76.94
43450;BME280;29041;42.266;23.110;2023-01-31T10:07:15;95567.81;;;3.17;78.23
43450;BME280;29041;42.266;23.110;2023-01-31T10:10:16;95573.94;;;3.13;77.61
43450;BME280;29041;42.266;23.110;2023-01-31T10:13:18;95561.69;;;3.46;77.47
43450;BME280;29041;42.266;23.110;2023-01-31T10:16:30;95565.13;;;3.23;77.44
43450;BME280;29041;42.266;23.110;2023-01-31T10:19:30;95532.91;;;3.05;76.88
43450;BME280;29041;42.266;23.110;2023-01-31T10:22:31;95555.84;;;2.91;77.36
43450;BME280;29041;42.266;23.110;2023-01-31T10:25:26;95552.63;;;2.94;77.60
43450;BME280;29041;42.266;23.110;2023-01-31T10:28:19;95547.47;;;3.08;78.10
43450;BME280;29041;42.266;23.110;2023-01-31T10:31:15;95556.38;;;2.88;77.33
43450;BME280;29041;42.266;23.110;2023-01-31T10:34:11;95538.69;;;2.78;76.89
43450;BME280;29041;42.266;23.110;2023-01-31T10:43:15;95527.91;;;2.69;77.94
43450;BME280;29041;42.266;23.110;2023-01-31T10:46:21;95524.91;;;2.76;78.67
43450;BME280;29041;42.266;23.110;2023-01-31T11:04:52;95543.81;;;3.04;78.28
43450;BME280;29041;42.266;23.110;2023-01-31T11:12:59;95519.72;;;2.95;78.57
43450;BME280;29041;42.266;23.110;2023-01-31T11:29:58;95505.31;;;3.06;79.24
43450;BME280;29041;42.266;23.110;2023-01-31T11:36:07;95506.69;;;2.69;81.04
43450;BME280;29041;42.266;23.110;2023-01-31T11:39:01;95507.75;;;2.68;80.72
43450;BME280;29041;42.266;23.110;2023-01-31T11:42:14;95552.09;;;2.57;82.63
43450;BME280;29041;42.266;23.110;2023-01-31T11:45:22;95523.19;;;2.21;85.07
43450;BME280;29041;42.266;23.110;2023-01-31T11:48:31;95520.41;;;2.42;84.35
43450;BME280;29041;42.266;23.110;2023-01-31T11:51:46;95565.38;;;2.52;84.84
43450;BME280;29041;42.266;23.110;2023-01-31T11:54:40;95558.63;;;2.30;86.01
43450;BME280;29041;42.266;23.110;2023-01-31T11:57:43;95527.97;;;2.14;86.53
43450;BME280;29041;42.266;23.110;2023-01-31T12:00:33;95516.69;;;1.93;87.24
43450;BME280;29041;42.266;23.110;2023-01-31T12:03:21;95545.63;;;2.29;87.29
43450;BME280;29041;42.266;23.110;2023-01-31T12:06:09;95514.69;;;2.19;87.10
43450;BME280;29041;42.266;23.110;2023-01-31T12:09:19;95541.00;;;2.50;87.57
43450;BME280;29041;42.266;23.110;2023-01-31T12:12:22;95534.13;;;2.49;87.93
43450;BME280;29041;42.266;23.110;2023-01-31T12:15:13;95531.38;;;2.64;87.29
43450;BME280;29041;42.266;23.110;2023-01-31T12:18:29;95535.03;;;2.74;87.37
43450;BME280;29041;42.266;23.110;2023-01-31T12:21:33;95526.06;;;2.64;87.23
43450;BME280;29041;42.266;23.110;2023-01-31T12:24:32;95532.16;;;2.99;87.46
43450;BME280;29041;42.266;23.110;2023-01-31T12:27:35;95532.88;;;2.76;87.79
43450;BME280;29041;42.266;23.110;2023-01-31T12:33:55;95523.66;;;2.68;87.26
43450;BME280;29041;42.266;23.110;2023-01-31T12:36:54;95517.22;;;2.45;88.40
43450;BME280;29041;42.266;23.110;2023-01-31T12:39:58;95523.38;;;2.30;89.24
43450;BME280;29041;42.266;23.110;2023-01-31T12:43:00;95529.38;;;2.46;89.25
43450;BME280;29041;42.266;23.110;2023-01-31T12:45:57;95525.00;;;2.65;88.12
43450;BME280;29041;42.266;23.110;2023-01-31T12:52:27;95538.34;;;2.10;91.95
43450;BME280;29041;42.266;23.110;2023-01-31T12:55:26;95525.88;;;2.16;92.95
43450;BME280;29041;42.266;23.110;2023-01-31T12:58:29;95532.13;;;2.30;92.09
43450;BME280;29041;42.266;23.110;2023-01-31T13:01:33;95526.03;;;2.30;92.79
43450;BME280;29041;42.266;23.110;2023-01-31T13:04:32;95510.75;;;2.16;93.24
43450;BME280;29041;42.266;23.110;2023-01-31T13:07:26;95517.94;;;2.11;93.17
43450;BME280;29041;42.266;23.110;2023-01-31T13:10:26;95520.69;;;2.35;92.33
43450;BME280;29041;42.266;23.110;2023-01-31T13:13:21;95518.13;;;2.64;90.34
43450;BME280;29041;42.266;23.110;2023-01-31T13:16:13;95520.09;;;2.83;89.21
43450;BME280;29041;42.266;23.110;2023-01-31T13:19:17;95512.75;;;2.75;89.08
43450;BME280;29041;42.266;23.110;2023-01-31T13:22:12;95509.16;;;2.90;87.15
43450;BME280;29041;42.266;23.110;2023-01-31T13:25:10;95508.94;;;3.15;86.97
43450;BME280;29041;42.266;23.110;2023-01-31T13:31:45;95528.75;;;2.59;83.88
43450;BME280;29041;42.266;23.110;2023-01-31T13:34:38;95531.66;;;2.63;83.66
43450;BME280;29041;42.266;23.110;2023-01-31T13:37:30;95536.03;;;2.78;83.48
43450;BME280;29041;42.266;23.110;2023-01-31T13:40:20;95524.25;;;2.60;83.67
43450;BME280;29041;42.266;23.110;2023-01-31T13:43:13;95530.44;;;2.84;81.33
43450;BME280;29041;42.266;23.110;2023-01-31T13:46:03;95546.91;;;3.11;80.96
43450;BME280;29041;42.266;23.110;2023-01-31T13:48:54;95538.63;;;2.88;80.52
43450;BME280;29041;42.266;23.110;2023-01-31T13:51:47;95535.44;;;2.86;80.22
43450;BME280;29041;42.266;23.110;2023-01-31T13:54:40;95543.81;;;2.69;80.27
43450;BME280;29041;42.266;23.110;2023-01-31T13:57:32;95548.59;;;3.01;78.49
43450;BME280;29041;42.266;23.110;2023-01-31T14:00:33;95555.94;;;2.75;77.79
43450;BME280;29041;42.266;23.110;2023-01-31T14:03:22;95550.84;;;2.84;78.53
43450;BME280;29041;42.266;23.110;2023-01-31T14:06:09;95548.91;;;2.60;78.89
43450;BME280;29041;42.266;23.110;2023-01-31T14:09:22;95563.38;;;3.08;77.61
43450;BME280;29041;42.266;23.110;2023-01-31T14:12:31;95559.72;;;2.98;76.71
43450;BME280;29041;42.266;23.110;2023-01-31T14:18:43;95573.47;;;2.71;77.17
43450;BME280;29041;42.266;23.110;2023-01-31T14:21:50;95572.53;;;2.91;76.92
43450;BME280;29041;42.266;23.110;2023-01-31T14:25:38;95546.88;;;2.81;76.79
43450;BME280;29041;42.266;23.110;2023-01-31T14:28:56;95576.75;;;2.92;77.34
43450;BME280;29041;42.266;23.110;2023-01-31T14:31:45;95564.03;;;2.94;76.74
43450;BME280;29041;42.266;23.110;2023-01-31T14:34:46;95576.03;;;2.81;77.20
43450;BME280;29041;42.266;23.110;2023-01-31T14:37:44;95562.00;;;2.81;76.05
43450;BME280;29041;42.266;23.110;2023-01-31T14:40:40;95546.63;;;2.83;76.29
43450;BME280;29041;42.266;23.110;2023-01-31T14:43:58;95591.59;;;2.93;76.53
43450;BME280;29041;42.266;23.110;2023-01-31T14:47:09;95568.69;;;3.08;76.20
43450;BME280;29041;42.266;23.110;2023-01-31T14:50:19;95585.16;;;2.65;76.90
43450;BME280;29041;42.266;23.110;2023-01-31T14:53:22;95553.50;;;2.44;77.43
43450;BME280;29041;42.266;23.110;2023-01-31T14:56:22;95549.53;;;2.42;77.57
43450;BME280;29041;42.266;23.110;2023-01-31T14:59:25;95578.06;;;2.60;77.30
43450;BME280;29041;42.266;23.110;2023-01-31T15:02:25;95604.63;;;2.90;77.10
43450;BME280;29041;42.266;23.110;2023-01-31T15:05:38;95606.94;;;3.01;76.18
43450;BME280;29041;42.266;23.110;2023-01-31T15:08:38;95608.31;;;2.94;75.89
43450;BME280;29041;42.266;23.110;2023-01-31T15:11:40;95612.19;;;3.07;75.57
43450;BME280;29041;42.266;23.110;2023-01-31T15:14:37;95623.75;;;2.87;76.23
43450;BME280;29041;42.266;23.110;2023-01-31T15:17:30;95625.88;;;2.84;75.62
43450;BME280;29041;42.266;23.110;2023-01-31T15:28:39;95630.59;;;2.93;75.36
43450;BME280;29041;42.266;23.110;2023-01-31T15:31:42;95632.81;;;2.75;76.53
43450;BME280;29041;42.266;23.110;2023-01-31T15:34:36;95640.66;;;2.51;76.91
43450;BME280;29041;42.266;23.110;2023-01-31T15:37:36;95633.59;;;2.31;78.27
43450;BME280;29041;42.266;23.110;2023-01-31T15:40:26;95629.00;;;2.47;77.82
43450;BME280;29041;42.266;23.110;2023-01-31T15:43:22;95630.91;;;2.36;78.27
43450;BME280;29041;42.266;23.110;2023-01-31T15:46:27;95615.13;;;2.10;78.64
43450;BME280;29041;42.266;23.110;2023-01-31T15:49:49;95662.50;;;2.17;79.51
43450;BME280;29041;42.266;23.110;2023-01-31T15:52:38;95630.81;;;1.91;80.23
43450;BME280;29041;42.266;23.110;2023-01-31T15:55:26;95626.84;;;1.88;80.32
43450;BME280;29041;42.266;23.110;2023-01-31T15:58:18;95636.91;;;1.92;81.32
43450;BME280;29041;42.266;23.110;2023-01-31T16:12:29;95695.13;;;2.12;80.83
43450;BME280;29041;42.266;23.110;2023-01-31T17:14:14;95753.41;;;1.86;81.17
43450;BME280;29041;42.266;23.110;2023-01-31T18:29:45;95811.34;;;2.09;80.64
43450;BME280;29041;42.266;23.110;2023-01-31T18:33:19;95816.38;;;1.69;82.87
43450;BME280;29041;42.266;23.110;2023-01-31T18:39:09;95806.88;;;1.78;81.95
43450;BME280;29041;42.266;23.110;2023-01-31T18:42:10;95798.38;;;1.61;82.18
43450;BME280;29041;42.266;23.110;2023-01-31T18:45:20;95825.91;;;1.54;83.18
43450;BME280;29041;42.266;23.110;2023-01-31T18:48:32;95803.13;;;1.48;82.62
43450;BME280;29041;42.266;23.110;2023-01-31T18:51:29;95825.66;;;1.77;82.51
43450;BME280;29041;42.266;23.110;2023-01-31T19:00:28;95801.03;;;1.61;83.34
43450;BME280;29041;42.266;23.110;2023-01-31T19:10:23;95820.38;;;1.56;83.58
43450;BME280;29041;42.266;23.110;2023-01-31T19:13:36;95783.28;;;1.51;82.68
43450;BME280;29041;42.266;23.110;2023-01-31T19:16:55;95787.81;;;1.45;82.60
43450;BME280;29041;42.266;23.110;2023-01-31T19:19:48;95828.81;;;1.53;84.29
43450;BME280;29041;42.266;23.110;2023-01-31T19:23:06;95798.81;;;1.11;84.90
43450;BME280;29041;42.266;23.110;2023-01-31T19:29:12;95816.41;;;1.79;82.38
43450;BME280;29041;42.266;23.110;2023-01-31T19:32:27;95829.91;;;1.98;81.77
43450;BME280;29041;42.266;23.110;2023-01-31T19:35:34;95807.91;;;1.62;82.28
43450;BME280;29041;42.266;23.110;2023-01-31T19:38:39;95846.81;;;1.66;84.26
43450;BME280;29041;42.266;23.110;2023-01-31T19:41:41;95825.91;;;1.75;83.00
43450;BME280;29041;42.266;23.110;2023-01-31T19:44:40;95817.97;;;1.44;85.26
43450;BME280;29041;42.266;23.110;2023-01-31T19:56:27;95842.09;;;1.79;84.02
43450;BME280;29041;42.266;23.110;2023-01-31T19:59:37;95821.72;;;1.89;83.97
43450;BME280;29041;42.266;23.110;2023-01-31T20:02:29;95824.06;;;1.76;84.12
43450;BME280;29041;42.266;23.110;2023-01-31T20:05:21;95839.97;;;1.76;83.14
43450;BME280;29041;42.266;23.110;2023-01-31T20:08:10;95838.63;;;1.68;86.08
43450;BME280;29041;42.266;23.110;2023-01-31T20:11:22;95864.03;;;1.69;85.99
43450;BME280;29041;42.266;23.110;2023-01-31T20:15:00;95858.91;;;1.26;87.57
43450;BME280;29041;42.266;23.110;2023-01-31T20:17:47;95871.09;;;1.37;85.88
43450;BME280;29041;42.266;23.110;2023-01-31T21:35:48;95877.38;;;0.62;87.05
43450;BME280;29041;42.266;23.110;2023-01-31T21:39:04;95916.00;;;1.17;86.72
43450;BME280;29041;42.266;23.110;2023-01-31T21:42:10;95881.31;;;1.08;86.48
43450;BME280;29041;42.266;23.110;2023-01-31T21:45:09;95909.09;;;1.10;88.72
43450;BME280;29041;42.266;23.110;2023-01-31T21:48:01;95907.75;;;1.08;88.22
43450;BME280;29041;42.266;23.110;2023-01-31T21:51:22;95887.94;;;1.10;87.31
43450;BME280;29041;42.266;23.110;2023-01-31T21:54:40;95885.91;;;0.80;88.57
43450;BME280;29041;42.266;23.110;2023-01-31T21:57:52;95869.38;;;1.00;87.67
43450;BME280;29041;42.266;23.110;2023-01-31T22:00:40;95882.88;;;1.04;87.34
43450;BME280;29041;42.266;23.110;2023-01-31T22:03:50;95908.66;;;1.34;87.14
43450;BME280;29041;42.266;23.110;2023-01-31T22:06:40;95914.13;;;1.17;86.84
43450;BME280;29041;42.266;23.110;2023-01-31T22:09:27;95898.53;;;1.16;85.84
43450;BME280;29041;42.266;23.110;2023-01-31T22:12:17;95911.59;;;1.43;84.58
43450;BME280;29041;42.266;23.110;2023-01-31T22:15:08;95915.31;;;1.47;85.04
43450;BME280;29041;42.266;23.110;2023-01-31T22:18:13;95915.09;;;1.64;84.19
43450;BME280;29041;42.266;23.110;2023-01-31T22:21:01;95915.38;;;0.99;86.39
43450;BME280;29041;42.266;23.110;2023-01-31T22:23:52;95903.06;;;1.31;85.69
43450;BME280;29041;42.266;23.110;2023-01-31T22:58:05;95922.91;;;1.28;87.11
43450;BME280;29041;42.266;23.110;2023-01-31T23:01:37;95874.94;;;0.99;86.32
43450;BME280;29041;42.266;23.110;2023-01-31T23:04:40;95888.56;;;0.80;88.91
43450;BME280;29041;42.266;23.110;2023-01-31T23:07:41;95925.25;;;0.71;89.52
43450;BME280;29041;42.266;23.110;2023-01-31T23:10:38;95880.13;;;0.78;88.31
43450;BME280;29041;42.266;23.110;2023-01-31T23:25:03;95937.78;;;1.45;87.01
43450;BME280;29041;42.266;23.110;2023-01-31T23:31:30;95904.16;;;1.35;85.61
43450;BME280;29041;42.266;23.110;2023-01-31T23:34:40;95935.19;;;1.55;86.43
43450;BME280;29041;42.266;23.110;2023-01-31T23:37:28;95913.16;;;1.39;85.97
43450;BME280;29041;42.266;23.110;2023-01-31T23:40:38;95927.78;;;1.57;84.51
43450;BME280;29041;42.266;23.110;2023-01-31T23:43:26;95889.47;;;1.01;85.71
43450;BME280;29041;42.266;23.110;2023-01-31T23:46:14;95885.34;;;0.73;86.58
43450;BME280;29041;42.266;23.110;2023-01-31T23:49:01;95885.03;;;0.64;87.12
43450;BME280;29041;42.266;23.110;2023-01-31T23:51:48;95933.28;;;0.87;87.80
